CheckWX is a tool to help pilots better visualize weather data.  It is not intended as a substitute for an official pre-flight weather briefing.

07:14:48 UTC

KLAW TAF
Lawton-Fort Sill Regional Airport
Lawton, Oklahoma, USA
KLAW 210520Z 2106/2206 16010KT P6SM BKN045 OVC100 FM211200 17013G17KT P6SM BKN015 BKN045 FM211800 18015KT P6SM BKN050 FM220000 15013KT P6SM BKN050 OVC100 PROB30 2200/2206 3SM TSRA BKN040CB OVC100

Sep-21@
06:00 UTC

Sep-21 @ 06:00 UTC

Sep-21@
12:00 UTC

Sep-21 @ 12:00 UTC

KLAW 210520Z 2106/2206 16010KT P6SM BKN045 OVC100
Wind
  • 160° at 10 KTS
Cloud Levels
  • Broken at 4,500' AGL
  • Overcast at 10,000' AGL

Sep-21@
12:00 UTC

Sep-21 @ 12:00 UTC

Sep-21@
18:00 UTC

Sep-21 @ 18:00 UTC

FM211200 17013G17KT P6SM BKN015 BKN045

From

From Standard forecast or significant change

Wind
  • 170° at 13 KTS
  • {Gusting to 17 KTS
Cloud Levels
  • Broken at 1,500' AGL
  • Broken at 4,500' AGL

Sep-21@
18:00 UTC

Sep-21 @ 18:00 UTC

Sep-22@
00:00 UTC

Sep-22 @ 00:00 UTC

FM211800 18015KT P6SM BKN050

From

From Standard forecast or significant change

Wind
  • 180° at 15 KTS
Cloud Levels
  • Broken at 5,000' AGL

Sep-22@
00:00 UTC

Sep-22 @ 00:00 UTC

Sep-22@
06:00 UTC

Sep-22 @ 06:00 UTC

FM220000 15013KT P6SM BKN050 OVC100

From

From Standard forecast or significant change

Wind
  • 150° at 13 KTS
Cloud Levels
  • Broken at 5,000' AGL
  • Overcast at 10,000' AGL

Sep-22@
00:00 UTC

Sep-22 @ 00:00 UTC

Sep-22@
06:00 UTC

Sep-22 @ 06:00 UTC

PROB30 2200/2206 3SM TSRA BKN040CB OVC100

Probable - 30% Likelihood

Probable - 30% Likelihood during this time.

Conditions
Thunderstorm, Rain
Cloud Levels
  • Broken at 4,000' AGL
  • Overcast at 10,000' AGL